Time;durP1;ratioP1;P1;durP2;ratioP2;P2;SDS_P1;SDS_P2;PMS_P1;PMS_P2;Temp;Humidity;BMP_temperature;BMP_pressure;BME280_temperature;BME280_humidity;BME280_pressure;Samples;Min_cycle;Max_cycle;Signal;HPM_P1;HPM_P2
2021/11/17 02:26:16;;;;;;;;;;;;;;;;;;;;;
2021/11/17 02:28:44;;;;;;;;;4.00;4.00;;;;;;;;6415308;22;36393;-81
2021/11/17 02:31:47;;;;;;;;;;;;;;;;;;;;;
2021/11/17 02:34:40;;;;;;;;;0.00;0.00;;;;;;;;6447751;22;35871;-80
2021/11/17 02:37:14;;;;;;;;;0.00;0.00;;;;;;;;6423348;22;8695;-81
2021/11/17 02:43:03;;;;;;;;;;;;;;;;;;;;;
2021/11/17 02:45:42;;;;;;;;;2.00;2.00;;;;;;;;6423580;22;36611;-81
2021/11/17 02:48:50;;;;;;;;;19.25;19.25;;;;;;;;6419777;22;8758;-81
2021/11/17 02:51:54;;;;;;;;;;;;;;;;;;;;;
2021/11/17 02:54:38;;;;;;;;;27.50;26.00;;;;;;;;6321219;22;35854;-81
2021/11/17 03:06:28;;;;;;;;;83.60;76.60;;;;;;;;6430694;22;9664;-81
2021/11/17 03:09:14;;;;;;;;;86.80;80.80;;;;;;;;6393798;22;8742;-81
2021/11/17 03:12:06;;;;;;;;;94.00;88.40;;;;;;;;6417772;22;8757;-81
2021/11/17 03:15:11;;;;;;;;;;;;;;;;;;;;;
2021/11/17 03:17:52;;;;;;;;;;;;;;;;;;;;;
2021/11/17 03:20:37;;;;;;;;;;;;;;;;;;;;;
2021/11/17 03:28:51;;;;;;;;;207.50;206.83;;;;;;;;6447836;22;8734;-80
2021/11/17 03:31:35;;;;;;;;;206.33;206.33;;;;;;;;6448074;22;8781;-81
2021/11/17 03:34:14;;;;;;;;;;;;;;;;;;;;;
2021/11/17 03:37:01;;;;;;;;;223.00;219.80;;;;;;;;6446665;22;36788;-80
2021/11/17 03:40:01;;;;;;;;;231.50;231.50;;;;;;;;6447847;22;8738;-80
2021/11/17 03:43:16;;;;;;;;;;;;;;;;;;;;;
2021/11/17 03:45:36;;;;;;;;;214.00;213.67;;;;;;;;6437170;22;8746;-80
2021/11/17 03:48:17;;;;;;;;;192.67;192.67;;;;;;;;6448720;22;8746;-81
2021/11/17 03:51:07;;;;;;;;;232.33;231.83;;;;;;;;6419117;22;8765;-81
2021/11/17 03:54:01;;;;;;;;;225.00;225.00;;;;;;;;6417593;22;9592;-80
2021/11/17 03:56:51;;;;;;;;;155.00;155.00;;;;;;;;6419170;22;8765;-81
2021/11/17 04:02:37;;;;;;;;;208.17;208.17;;;;;;;;6420070;22;8796;-81
2021/11/17 04:05:23;;;;;;;;;186.80;186.80;;;;;;;;6448214;22;8741;-81
2021/11/17 04:08:25;;;;;;;;;;;;;;;;;;;;;
2021/11/17 04:17:39;;;;;;;;;;;;;;;;;;;;;
2021/11/17 04:20:35;;;;;;;;;;;;;;;;;;;;;
2021/11/17 04:23:22;;;;;;;;;97.20;92.20;;;;;;;;6447439;22;35542;-81
2021/11/17 04:31:51;;;;;;;;;;;;;;;;;;;;;
2021/11/17 04:34:43;;;;;;;;;0.25;0.25;;;;;;;;6447264;22;34896;-81
2021/11/17 04:40:47;;;;;;;;;;;;;;;;;;;;;
2021/11/17 04:43:26;;;;;;;;;0.25;0.25;;;;;;;;6436512;22;8759;-81
2021/11/17 04:46:14;;;;;;;;;1.25;1.25;;;;;;;;6448026;22;8781;-81
2021/11/17 04:49:10;;;;;;;;;;;;;;;;;;;;;
2021/11/17 04:51:42;;;;;;;;;;;;;;;;;;;;;
2021/11/17 04:54:44;;;;;;;;;;;;;;;;;;;;;
2021/11/17 04:57:55;;;;;;;;;;;;;;;;;;;;;
2021/11/17 05:00:52;;;;;;;;;;;;;;;;;;;;;
2021/11/17 05:03:46;;;;;;;;;;;;;;;;;;;;;
2021/11/17 05:06:29;;;;;;;;;1.00;1.00;;;;;;;;6448343;22;36308;-80
2021/11/17 05:09:11;;;;;;;;;24.75;23.50;;;;;;;;6420552;22;8727;-80
2021/11/17 05:12:19;;;;;;;;;;;;;;;;;;;;;
2021/11/17 05:14:56;;;;;;;;;;;;;;;;;;;;;
2021/11/17 05:17:27;;;;;;;;;2.50;2.50;;;;;;;;6448885;22;36452;-81
2021/11/17 05:20:34;;;;;;;;;9.00;9.00;;;;;;;;6419760;22;8785;-80
2021/11/17 05:23:25;;;;;;;;;19.50;19.25;;;;;;;;6350216;22;8872;-80
2021/11/17 05:26:02;;;;;;;;;3.00;3.00;;;;;;;;6350231;22;8738;-80
2021/11/17 05:28:33;;;;;;;;;4.25;4.25;;;;;;;;6395759;22;8906;-80
2021/11/17 05:31:03;;;;;;;;;20.50;19.75;;;;;;;;6448517;22;8770;-80
2021/11/17 05:33:41;;;;;;;;;;;;;;;;;;;;;
2021/11/17 05:36:16;;;;;;;;;4.50;4.50;;;;;;;;6447914;22;35799;-80
2021/11/17 05:38:44;;;;;;;;;0.50;0.50;;;;;;;;6449183;22;8706;-80
2021/11/17 05:41:12;;;;;;;;;3.50;3.50;;;;;;;;6449360;22;9009;-80
2021/11/17 05:43:47;;;;;;;;;0.00;0.00;;;;;;;;6448790;22;8789;-80
2021/11/17 05:46:18;;;;;;;;;0.00;0.00;;;;;;;;6449417;22;8785;-80
2021/11/17 05:48:50;;;;;;;;;0.00;0.00;;;;;;;;6420546;22;8742;-80
2021/11/17 05:51:21;;;;;;;;;0.00;0.00;;;;;;;;6449056;22;8750;-80
2021/11/17 05:54:04;;;;;;;;;0.00;0.00;;;;;;;;6449444;22;8785;-80
2021/11/17 05:56:39;;;;;;;;;0.00;0.00;;;;;;;;6420864;22;8754;-80
2021/11/17 05:59:15;;;;;;;;;0.00;0.00;;;;;;;;6419991;22;8790;-81
2021/11/17 06:02:26;;;;;;;;;0.00;0.00;;;;;;;;6449668;22;9620;-79
2021/11/17 06:04:53;;;;;;;;;0.00;0.00;;;;;;;;6323358;22;8754;-80
2021/11/17 06:07:21;;;;;;;;;0.00;0.00;;;;;;;;6436269;22;9640;-81
2021/11/17 06:09:49;;;;;;;;;0.00;0.00;;;;;;;;6419844;22;8758;-80
2021/11/17 06:12:36;;;;;;;;;0.00;0.00;;;;;;;;6448979;22;8753;-80
2021/11/17 06:15:11;;;;;;;;;0.00;0.00;;;;;;;;6419300;22;8865;-81
2021/11/17 06:17:57;;;;;;;;;0.00;0.00;;;;;;;;6420156;22;8734;-80
2021/11/17 06:23:18;;;;;;;;;0.00;0.00;;;;;;;;6286395;22;8751;-81
2021/11/17 06:29:16;;;;;;;;;0.00;0.00;;;;;;;;6414999;22;9369;-81
2021/11/17 06:31:56;;;;;;;;;0.00;0.00;;;;;;;;6448549;22;8766;-80
2021/11/17 06:34:40;;;;;;;;;;;;;;;;;;;;;
2021/11/17 06:37:25;;;;;;;;;0.00;0.00;;;;;;;;6448033;22;36366;-81
2021/11/17 06:40:18;;;;;;;;;;;;;;;;;;;;;
2021/11/17 06:43:18;;;;;;;;;;;;;;;;;;;;;
2021/11/17 06:54:30;;;;;;;;;0.00;0.00;;;;;;;;6255730;22;8758;-81
2021/11/17 06:56:55;;;;;;;;;0.00;0.00;;;;;;;;6396719;22;8750;-82
2021/11/17 07:02:35;;;;;;;;;0.00;0.00;;;;;;;;6420253;22;8750;-82
2021/11/17 07:05:03;;;;;;;;;0.00;0.00;;;;;;;;6449188;22;8755;-81
2021/11/17 07:07:41;;;;;;;;;;;;;;;;;;;;;
2021/11/17 07:10:52;;;;;;;;;;;;;;;;;;;;;
2021/11/17 07:13:23;;;;;;;;;0.00;0.00;;;;;;;;6446661;22;38047;-82
2021/11/17 07:16:17;;;;;;;;;0.00;0.00;;;;;;;;6448804;22;8786;-82
2021/11/17 07:18:59;;;;;;;;;0.00;0.00;;;;;;;;6448863;22;8734;-81
2021/11/17 07:21:47;;;;;;;;;0.00;0.00;;;;;;;;6419993;22;8738;-82
2021/11/17 07:24:33;;;;;;;;;0.00;0.00;;;;;;;;6404878;22;8718;-82
2021/11/17 07:27:06;;;;;;;;;0.00;0.00;;;;;;;;6447220;22;8768;-81
2021/11/17 07:29:34;;;;;;;;;0.00;0.00;;;;;;;;6419905;22;9648;-82
2021/11/17 07:32:30;;;;;;;;;0.00;0.00;;;;;;;;6419164;22;8767;-82
2021/11/17 07:47:51;;;;;;;;;;;;;;;;;;;;;
2021/11/17 07:50:39;;;;;;;;;0.00;0.00;;;;;;;;6285729;22;37371;-81
2021/11/17 07:53:44;;;;;;;;;0.00;0.00;;;;;;;;6261330;22;8675;-81
2021/11/17 07:57:03;;;;;;;;;0.00;0.00;;;;;;;;6362633;22;8754;-81
2021/11/17 08:14:54;;;;;;;;;;;;;;;;;;;;;
2021/11/17 08:40:29;;;;;;;;;0.00;0.00;;;;;;;;6098760;23;8809;-82
2021/11/17 08:46:47;;;;;;;;;0.00;0.00;;;;;;;;6110558;23;8730;-82
2021/11/17 09:43:53;;;;;;;;;;;;;;;;;;;;;
2021/11/17 09:46:54;;;;;;;;;;;;;;;;;;;;;
2021/11/17 09:55:43;;;;;;;;;0.00;0.00;;;;;;;;6276261;22;8786;-82
2021/11/17 09:58:14;;;;;;;;;0.00;0.00;;;;;;;;6363321;22;9647;-82
2021/11/17 10:00:39;;;;;;;;;0.00;0.00;;;;;;;;6387480;22;8726;-82
2021/11/17 10:03:29;;;;;;;;;0.00;0.00;;;;;;;;6417111;22;8796;-82
